sensor_id;sensor_type;location;lat;lon;timestamp;temperature;humidity
42365;DHT22;28498;54.400;18.566;2022-11-10T00:01:09;10.10;99.90
42365;DHT22;28498;54.400;18.566;2022-11-10T00:03:37;10.20;99.90
42365;DHT22;28498;54.400;18.566;2022-11-10T00:06:07;10.10;99.90
42365;DHT22;28498;54.400;18.566;2022-11-10T00:08:34;10.10;99.90
42365;DHT22;28498;54.400;18.566;2022-11-10T00:11:06;10.10;99.90
42365;DHT22;28498;54.400;18.566;2022-11-10T00:13:35;10.20;99.90
42365;DHT22;28498;54.400;18.566;2022-11-10T00:16:22;10.10;99.90
42365;DHT22;28498;54.400;18.566;2022-11-10T00:19:08;10.00;99.90
42365;DHT22;28498;54.400;18.566;2022-11-10T00:21:35;10.10;99.90
42365;DHT22;28498;54.400;18.566;2022-11-10T00:24:04;10.00;99.90
42365;DHT22;28498;54.400;18.566;2022-11-10T00:26:31;10.00;99.90
42365;DHT22;28498;54.400;18.566;2022-11-10T00:28:58;10.10;99.90
42365;DHT22;28498;54.400;18.566;2022-11-10T00:31:25;10.10;99.90
42365;DHT22;28498;54.400;18.566;2022-11-10T00:33:54;10.20;99.90
42365;DHT22;28498;54.400;18.566;2022-11-10T00:36:21;10.20;99.90
42365;DHT22;28498;54.400;18.566;2022-11-10T00:38:50;10.10;99.90
42365;DHT22;28498;54.400;18.566;2022-11-10T00:41:17;10.00;99.90
42365;DHT22;28498;54.400;18.566;2022-11-10T00:43:43;10.10;99.90
42365;DHT22;28498;54.400;18.566;2022-11-10T00:46:10;10.10;99.90
42365;DHT22;28498;54.400;18.566;2022-11-10T00:48:37;10.00;99.90
42365;DHT22;28498;54.400;18.566;2022-11-10T00:51:05;10.00;99.90
42365;DHT22;28498;54.400;18.566;2022-11-10T00:53:32;10.00;99.90
42365;DHT22;28498;54.400;18.566;2022-11-10T00:55:58;10.00;99.90
42365;DHT22;28498;54.400;18.566;2022-11-10T00:58:25;10.00;99.90
42365;DHT22;28498;54.400;18.566;2022-11-10T01:01:00;10.00;99.90
42365;DHT22;28498;54.400;18.566;2022-11-10T01:03:28;10.00;99.90
42365;DHT22;28498;54.400;18.566;2022-11-10T01:05:55;10.00;99.90
42365;DHT22;28498;54.400;18.566;2022-11-10T01:08:22;10.00;99.90
42365;DHT22;28498;54.400;18.566;2022-11-10T01:10:49;10.10;99.90
42365;DHT22;28498;54.400;18.566;2022-11-10T01:13:16;10.00;99.90
42365;DHT22;28498;54.400;18.566;2022-11-10T01:15:43;10.10;99.90
42365;DHT22;28498;54.400;18.566;2022-11-10T01:18:10;10.10;99.90
42365;DHT22;28498;54.400;18.566;2022-11-10T01:20:37;10.00;99.90
42365;DHT22;28498;54.400;18.566;2022-11-10T01:23:04;9.90;99.90
42365;DHT22;28498;54.400;18.566;2022-11-10T01:25:31;9.90;99.90
42365;DHT22;28498;54.400;18.566;2022-11-10T01:27:58;9.80;99.90
42365;DHT22;28498;54.400;18.566;2022-11-10T01:30:24;9.80;99.90
42365;DHT22;28498;54.400;18.566;2022-11-10T01:32:53;9.80;99.90
42365;DHT22;28498;54.400;18.566;2022-11-10T01:35:20;9.70;99.90
42365;DHT22;28498;54.400;18.566;2022-11-10T01:37:47;9.70;99.90
42365;DHT22;28498;54.400;18.566;2022-11-10T01:40:16;9.70;99.90
42365;DHT22;28498;54.400;18.566;2022-11-10T01:43:04;9.80;99.90
42365;DHT22;28498;54.400;18.566;2022-11-10T01:45:35;9.70;99.90
42365;DHT22;28498;54.400;18.566;2022-11-10T01:48:06;9.80;99.90
42365;DHT22;28498;54.400;18.566;2022-11-10T01:50:38;9.80;99.90
42365;DHT22;28498;54.400;18.566;2022-11-10T01:53:08;9.80;99.90
42365;DHT22;28498;54.400;18.566;2022-11-10T01:55:38;9.80;99.90
42365;DHT22;28498;54.400;18.566;2022-11-10T01:58:07;9.70;99.90
42365;DHT22;28498;54.400;18.566;2022-11-10T02:00:35;9.70;99.90
42365;DHT22;28498;54.400;18.566;2022-11-10T02:03:55;9.70;99.90
42365;DHT22;28498;54.400;18.566;2022-11-10T02:06:21;9.70;99.90
42365;DHT22;28498;54.400;18.566;2022-11-10T02:08:49;9.70;99.90
42365;DHT22;28498;54.400;18.566;2022-11-10T02:11:16;9.70;99.90
42365;DHT22;28498;54.400;18.566;2022-11-10T02:13:43;9.80;99.90
42365;DHT22;28498;54.400;18.566;2022-11-10T02:16:11;9.80;99.90
42365;DHT22;28498;54.400;18.566;2022-11-10T02:18:38;9.90;99.90
42365;DHT22;28498;54.400;18.566;2022-11-10T02:21:07;9.90;99.90
42365;DHT22;28498;54.400;18.566;2022-11-10T02:26:04;10.10;99.90
42365;DHT22;28498;54.400;18.566;2022-11-10T02:28:36;10.20;99.90
42365;DHT22;28498;54.400;18.566;2022-11-10T02:31:05;10.20;99.90
42365;DHT22;28498;54.400;18.566;2022-11-10T02:33:32;10.10;99.90
42365;DHT22;28498;54.400;18.566;2022-11-10T02:35:58;10.10;99.90
42365;DHT22;28498;54.400;18.566;2022-11-10T02:38:25;10.00;99.90
42365;DHT22;28498;54.400;18.566;2022-11-10T02:40:52;10.10;99.90
42365;DHT22;28498;54.400;18.566;2022-11-10T02:43:19;10.30;99.90
42365;DHT22;28498;54.400;18.566;2022-11-10T02:45:46;10.20;99.90
42365;DHT22;28498;54.400;18.566;2022-11-10T02:48:14;10.10;99.90
42365;DHT22;28498;54.400;18.566;2022-11-10T02:50:42;10.20;99.90
42365;DHT22;28498;54.400;18.566;2022-11-10T02:53:09;10.20;99.90
42365;DHT22;28498;54.400;18.566;2022-11-10T02:55:36;10.10;99.90
42365;DHT22;28498;54.400;18.566;2022-11-10T02:58:03;10.20;99.90
42365;DHT22;28498;54.400;18.566;2022-11-10T03:00:31;10.20;99.90
42365;DHT22;28498;54.400;18.566;2022-11-10T03:02:59;10.20;99.90
42365;DHT22;28498;54.400;18.566;2022-11-10T03:05:28;10.00;99.90
42365;DHT22;28498;54.400;18.566;2022-11-10T03:07:58;10.10;99.90
42365;DHT22;28498;54.400;18.566;2022-11-10T03:10:26;10.10;99.90
42365;DHT22;28498;54.400;18.566;2022-11-10T03:12:54;10.00;99.90
42365;DHT22;28498;54.400;18.566;2022-11-10T03:15:21;9.90;99.90
42365;DHT22;28498;54.400;18.566;2022-11-10T03:17:48;9.80;99.90
42365;DHT22;28498;54.400;18.566;2022-11-10T03:20:16;9.90;99.90
42365;DHT22;28498;54.400;18.566;2022-11-10T03:22:43;9.90;99.90
42365;DHT22;28498;54.400;18.566;2022-11-10T03:25:11;9.80;99.90
42365;DHT22;28498;54.400;18.566;2022-11-10T03:27:38;9.80;99.90
42365;DHT22;28498;54.400;18.566;2022-11-10T03:30:06;9.80;99.90
42365;DHT22;28498;54.400;18.566;2022-11-10T03:32:33;9.90;99.90
42365;DHT22;28498;54.400;18.566;2022-11-10T03:35:00;9.90;99.90
42365;DHT22;28498;54.400;18.566;2022-11-10T03:37:27;9.90;99.90
42365;DHT22;28498;54.400;18.566;2022-11-10T03:39:54;9.90;99.90
42365;DHT22;28498;54.400;18.566;2022-11-10T03:42:21;9.90;99.90
42365;DHT22;28498;54.400;18.566;2022-11-10T03:44:48;9.70;99.90
42365;DHT22;28498;54.400;18.566;2022-11-10T03:47:15;9.70;99.90
42365;DHT22;28498;54.400;18.566;2022-11-10T03:49:42;9.70;99.90
42365;DHT22;28498;54.400;18.566;2022-11-10T03:52:09;9.70;99.90
42365;DHT22;28498;54.400;18.566;2022-11-10T03:54:35;9.70;99.90
42365;DHT22;28498;54.400;18.566;2022-11-10T03:57:02;9.70;99.90
42365;DHT22;28498;54.400;18.566;2022-11-10T03:59:30;9.80;99.90
42365;DHT22;28498;54.400;18.566;2022-11-10T04:01:57;9.80;99.90
42365;DHT22;28498;54.400;18.566;2022-11-10T04:04:24;9.80;99.90
42365;DHT22;28498;54.400;18.566;2022-11-10T04:07:12;9.70;99.90
42365;DHT22;28498;54.400;18.566;2022-11-10T04:09:58;9.70;99.90
42365;DHT22;28498;54.400;18.566;2022-11-10T04:12:24;9.70;99.90
42365;DHT22;28498;54.400;18.566;2022-11-10T04:15:10;9.70;99.90
42365;DHT22;28498;54.400;18.566;2022-11-10T04:17:56;9.60;99.90
42365;DHT22;28498;54.400;18.566;2022-11-10T04:20:43;9.60;99.90
42365;DHT22;28498;54.400;18.566;2022-11-10T04:23:11;9.60;99.90
42365;DHT22;28498;54.400;18.566;2022-11-10T04:25:58;9.70;99.90
42365;DHT22;28498;54.400;18.566;2022-11-10T04:28:49;9.80;99.90
42365;DHT22;28498;54.400;18.566;2022-11-10T04:31:18;9.70;99.90
42365;DHT22;28498;54.400;18.566;2022-11-10T04:33:46;9.70;99.90
42365;DHT22;28498;54.400;18.566;2022-11-10T04:36:17;9.60;99.90
42365;DHT22;28498;54.400;18.566;2022-11-10T04:38:44;9.60;99.90
42365;DHT22;28498;54.400;18.566;2022-11-10T04:41:12;9.70;99.90
42365;DHT22;28498;54.400;18.566;2022-11-10T04:43:39;9.70;99.90
42365;DHT22;28498;54.400;18.566;2022-11-10T04:46:32;9.70;99.90
42365;DHT22;28498;54.400;18.566;2022-11-10T04:48:57;9.60;99.90
42365;DHT22;28498;54.400;18.566;2022-11-10T04:51:30;9.60;99.90
42365;DHT22;28498;54.400;18.566;2022-11-10T04:53:57;9.60;99.90
42365;DHT22;28498;54.400;18.566;2022-11-10T04:56:25;9.60;99.90
42365;DHT22;28498;54.400;18.566;2022-11-10T04:58:53;9.70;99.90
42365;DHT22;28498;54.400;18.566;2022-11-10T05:01:25;9.70;99.90
42365;DHT22;28498;54.400;18.566;2022-11-10T05:03:53;9.70;99.90
42365;DHT22;28498;54.400;18.566;2022-11-10T05:06:21;9.70;99.90
42365;DHT22;28498;54.400;18.566;2022-11-10T05:08:48;9.80;99.90
42365;DHT22;28498;54.400;18.566;2022-11-10T05:11:15;9.70;99.90
42365;DHT22;28498;54.400;18.566;2022-11-10T05:13:42;9.70;99.90
42365;DHT22;28498;54.400;18.566;2022-11-10T05:16:10;9.70;99.90
42365;DHT22;28498;54.400;18.566;2022-11-10T05:18:37;9.60;99.90
42365;DHT22;28498;54.400;18.566;2022-11-10T05:21:04;9.60;99.90
42365;DHT22;28498;54.400;18.566;2022-11-10T05:23:31;9.60;99.90
42365;DHT22;28498;54.400;18.566;2022-11-10T05:26:05;9.50;99.90
42365;DHT22;28498;54.400;18.566;2022-11-10T05:28:33;9.50;99.90
42365;DHT22;28498;54.400;18.566;2022-11-10T05:31:00;9.60;99.90
42365;DHT22;28498;54.400;18.566;2022-11-10T05:33:27;9.60;99.90
42365;DHT22;28498;54.400;18.566;2022-11-10T05:35:54;9.60;99.90
42365;DHT22;28498;54.400;18.566;2022-11-10T05:38:21;9.60;99.90
42365;DHT22;28498;54.400;18.566;2022-11-10T05:40:48;9.40;99.90
42365;DHT22;28498;54.400;18.566;2022-11-10T05:43:15;9.60;99.90
42365;DHT22;28498;54.400;18.566;2022-11-10T05:45:42;9.50;99.90
42365;DHT22;28498;54.400;18.566;2022-11-10T05:48:09;9.40;99.90
42365;DHT22;28498;54.400;18.566;2022-11-10T05:50:36;9.30;99.90
42365;DHT22;28498;54.400;18.566;2022-11-10T05:53:02;9.20;99.90
42365;DHT22;28498;54.400;18.566;2022-11-10T05:55:29;9.30;99.90
42365;DHT22;28498;54.400;18.566;2022-11-10T05:57:57;9.20;99.90
42365;DHT22;28498;54.400;18.566;2022-11-10T06:00:26;9.10;99.90
42365;DHT22;28498;54.400;18.566;2022-11-10T06:03:13;9.20;99.90
42365;DHT22;28498;54.400;18.566;2022-11-10T06:05:41;9.10;99.90
42365;DHT22;28498;54.400;18.566;2022-11-10T06:08:08;9.10;99.90
42365;DHT22;28498;54.400;18.566;2022-11-10T06:10:36;9.00;99.90
42365;DHT22;28498;54.400;18.566;2022-11-10T06:13:04;8.90;99.90
42365;DHT22;28498;54.400;18.566;2022-11-10T06:15:31;8.90;99.90
42365;DHT22;28498;54.400;18.566;2022-11-10T06:17:58;8.90;99.90
42365;DHT22;28498;54.400;18.566;2022-11-10T06:20:25;9.00;99.90
42365;DHT22;28498;54.400;18.566;2022-11-10T06:23:05;8.90;99.90
42365;DHT22;28498;54.400;18.566;2022-11-10T06:25:34;8.90;99.90
42365;DHT22;28498;54.400;18.566;2022-11-10T06:28:02;8.90;99.90
42365;DHT22;28498;54.400;18.566;2022-11-10T06:30:31;8.90;99.90
42365;DHT22;28498;54.400;18.566;2022-11-10T06:32:59;9.00;99.90
42365;DHT22;28498;54.400;18.566;2022-11-10T06:35:26;9.00;99.90
42365;DHT22;28498;54.400;18.566;2022-11-10T06:38:08;9.00;99.90
42365;DHT22;28498;54.400;18.566;2022-11-10T06:40:35;9.00;99.90
42365;DHT22;28498;54.400;18.566;2022-11-10T06:43:03;9.00;99.90
42365;DHT22;28498;54.400;18.566;2022-11-10T06:45:30;9.10;99.90
42365;DHT22;28498;54.400;18.566;2022-11-10T06:48:02;9.10;99.90
42365;DHT22;28498;54.400;18.566;2022-11-10T06:50:30;9.20;99.90
42365;DHT22;28498;54.400;18.566;2022-11-10T06:52:58;9.20;99.90
42365;DHT22;28498;54.400;18.566;2022-11-10T06:55:25;9.30;99.90
42365;DHT22;28498;54.400;18.566;2022-11-10T06:57:52;9.30;99.90
42365;DHT22;28498;54.400;18.566;2022-11-10T07:00:20;9.20;99.90
42365;DHT22;28498;54.400;18.566;2022-11-10T07:02:47;9.40;99.90
42365;DHT22;28498;54.400;18.566;2022-11-10T07:05:14;9.40;99.90
42365;DHT22;28498;54.400;18.566;2022-11-10T07:07:41;9.50;99.90
42365;DHT22;28498;54.400;18.566;2022-11-10T07:10:08;9.70;99.90
42365;DHT22;28498;54.400;18.566;2022-11-10T07:12:35;9.70;99.90
42365;DHT22;28498;54.400;18.566;2022-11-10T07:15:03;9.70;99.90
42365;DHT22;28498;54.400;18.566;2022-11-10T07:17:33;9.70;99.90
42365;DHT22;28498;54.400;18.566;2022-11-10T07:20:04;9.80;99.90
42365;DHT22;28498;54.400;18.566;2022-11-10T07:22:31;9.70;99.90
42365;DHT22;28498;54.400;18.566;2022-11-10T07:24:58;9.70;99.90
42365;DHT22;28498;54.400;18.566;2022-11-10T07:27:25;9.70;99.90
42365;DHT22;28498;54.400;18.566;2022-11-10T07:29:52;9.60;99.90
42365;DHT22;28498;54.400;18.566;2022-11-10T07:32:19;9.60;99.90
42365;DHT22;28498;54.400;18.566;2022-11-10T07:34:46;9.70;99.90
42365;DHT22;28498;54.400;18.566;2022-11-10T07:37:13;9.70;99.90
42365;DHT22;28498;54.400;18.566;2022-11-10T07:39:40;9.90;99.90
42365;DHT22;28498;54.400;18.566;2022-11-10T07:42:07;10.00;99.90
42365;DHT22;28498;54.400;18.566;2022-11-10T07:44:34;10.20;99.90
42365;DHT22;28498;54.400;18.566;2022-11-10T07:47:01;10.40;99.90
42365;DHT22;28498;54.400;18.566;2022-11-10T07:49:27;10.50;99.90
42365;DHT22;28498;54.400;18.566;2022-11-10T07:51:54;10.70;99.90
42365;DHT22;28498;54.400;18.566;2022-11-10T07:54:21;10.90;99.90
42365;DHT22;28498;54.400;18.566;2022-11-10T07:56:48;11.00;99.90
42365;DHT22;28498;54.400;18.566;2022-11-10T07:59:15;11.10;99.90
42365;DHT22;28498;54.400;18.566;2022-11-10T08:01:42;11.30;99.90
42365;DHT22;28498;54.400;18.566;2022-11-10T08:04:09;11.40;99.90
42365;DHT22;28498;54.400;18.566;2022-11-10T08:06:35;11.50;99.90
42365;DHT22;28498;54.400;18.566;2022-11-10T08:09:03;11.50;99.90
42365;DHT22;28498;54.400;18.566;2022-11-10T08:15:17;11.60;99.90
42365;DHT22;28498;54.400;18.566;2022-11-10T08:17:44;11.70;99.90
42365;DHT22;28498;54.400;18.566;2022-11-10T08:20:11;11.50;99.90
42365;DHT22;28498;54.400;18.566;2022-11-10T08:22:38;11.50;99.90
42365;DHT22;28498;54.400;18.566;2022-11-10T08:25:05;11.60;99.90
42365;DHT22;28498;54.400;18.566;2022-11-10T08:27:32;11.60;99.90
42365;DHT22;28498;54.400;18.566;2022-11-10T08:29:58;11.70;99.90
42365;DHT22;28498;54.400;18.566;2022-11-10T08:32:25;11.70;99.90
42365;DHT22;28498;54.400;18.566;2022-11-10T08:34:52;11.60;99.90
42365;DHT22;28498;54.400;18.566;2022-11-10T08:37:19;11.80;99.90
42365;DHT22;28498;54.400;18.566;2022-11-10T08:39:46;11.60;99.90
42365;DHT22;28498;54.400;18.566;2022-11-10T08:42:13;11.60;99.90
42365;DHT22;28498;54.400;18.566;2022-11-10T08:44:39;11.70;99.90
42365;DHT22;28498;54.400;18.566;2022-11-10T08:47:06;11.70;99.90
42365;DHT22;28498;54.400;18.566;2022-11-10T08:49:33;11.50;99.90
42365;DHT22;28498;54.400;18.566;2022-11-10T08:52:02;11.60;99.90
42365;DHT22;28498;54.400;18.566;2022-11-10T08:54:29;11.50;99.90
42365;DHT22;28498;54.400;18.566;2022-11-10T09:00:37;11.50;99.90
42365;DHT22;28498;54.400;18.566;2022-11-10T09:03:06;11.60;99.90
42365;DHT22;28498;54.400;18.566;2022-11-10T09:05:34;11.60;99.90
42365;DHT22;28498;54.400;18.566;2022-11-10T09:08:02;11.60;99.90
42365;DHT22;28498;54.400;18.566;2022-11-10T09:14:29;11.70;99.90
42365;DHT22;28498;54.400;18.566;2022-11-10T09:16:56;11.80;99.90
42365;DHT22;28498;54.400;18.566;2022-11-10T09:19:23;11.70;99.90
42365;DHT22;28498;54.400;18.566;2022-11-10T09:21:50;11.80;99.90
42365;DHT22;28498;54.400;18.566;2022-11-10T09:24:17;11.90;99.90
42365;DHT22;28498;54.400;18.566;2022-11-10T09:26:44;12.00;99.90
42365;DHT22;28498;54.400;18.566;2022-11-10T09:29:13;12.00;99.90
42365;DHT22;28498;54.400;18.566;2022-11-10T09:31:42;12.10;99.90
42365;DHT22;28498;54.400;18.566;2022-11-10T09:37:51;12.30;99.90
42365;DHT22;28498;54.400;18.566;2022-11-10T09:40:22;12.20;99.90
42365;DHT22;28498;54.400;18.566;2022-11-10T09:42:54;12.40;99.90
42365;DHT22;28498;54.400;18.566;2022-11-10T09:45:42;12.30;99.90
42365;DHT22;28498;54.400;18.566;2022-11-10T09:48:30;12.10;99.90
42365;DHT22;28498;54.400;18.566;2022-11-10T09:51:06;12.10;99.90
42365;DHT22;28498;54.400;18.566;2022-11-10T09:53:56;12.10;99.90
42365;DHT22;28498;54.400;18.566;2022-11-10T09:56:34;11.90;99.90
42365;DHT22;28498;54.400;18.566;2022-11-10T09:59:34;11.90;99.90
42365;DHT22;28498;54.400;18.566;2022-11-10T10:02:12;11.80;99.90
42365;DHT22;28498;54.400;18.566;2022-11-10T10:04:57;11.60;99.90
42365;DHT22;28498;54.400;18.566;2022-11-10T10:07:41;11.50;99.90
42365;DHT22;28498;54.400;18.566;2022-11-10T10:10:21;11.30;99.90
42365;DHT22;28498;54.400;18.566;2022-11-10T10:19:10;11.40;99.90
42365;DHT22;28498;54.400;18.566;2022-11-10T10:24:16;11.20;99.90
42365;DHT22;28498;54.400;18.566;2022-11-10T10:26:53;11.30;99.90
42365;DHT22;28498;54.400;18.566;2022-11-10T10:29:39;11.50;99.90
42365;DHT22;28498;54.400;18.566;2022-11-10T10:32:11;11.60;99.90
42365;DHT22;28498;54.400;18.566;2022-11-10T10:34:39;11.70;99.90
42365;DHT22;28498;54.400;18.566;2022-11-10T10:37:23;11.90;99.90
42365;DHT22;28498;54.400;18.566;2022-11-10T10:39:52;12.00;99.90
42365;DHT22;28498;54.400;18.566;2022-11-10T10:42:31;12.20;99.90
42365;DHT22;28498;54.400;18.566;2022-11-10T10:47:38;12.10;99.90
42365;DHT22;28498;54.400;18.566;2022-11-10T10:50:25;12.10;99.90
42365;DHT22;28498;54.400;18.566;2022-11-10T10:53:23;12.00;99.90
42365;DHT22;28498;54.400;18.566;2022-11-10T11:03:28;11.50;99.90
42365;DHT22;28498;54.400;18.566;2022-11-10T11:06:05;11.40;99.90
42365;DHT22;28498;54.400;18.566;2022-11-10T11:08:35;11.50;99.90
42365;DHT22;28498;54.400;18.566;2022-11-10T11:14:46;11.60;99.90
42365;DHT22;28498;54.400;18.566;2022-11-10T11:17:17;11.60;99.90
42365;DHT22;28498;54.400;18.566;2022-11-10T11:19:45;11.60;99.90
42365;DHT22;28498;54.400;18.566;2022-11-10T11:30:04;12.10;99.90
42365;DHT22;28498;54.400;18.566;2022-11-10T11:36:34;12.10;99.90
42365;DHT22;28498;54.400;18.566;2022-11-10T11:42:17;11.60;99.90
42365;DHT22;28498;54.400;18.566;2022-11-10T11:45:14;11.50;99.90
42365;DHT22;28498;54.400;18.566;2022-11-10T11:50:42;11.50;99.90
42365;DHT22;28498;54.400;18.566;2022-11-10T11:55:52;11.70;99.90
42365;DHT22;28498;54.400;18.566;2022-11-10T12:01:22;11.90;99.90
42365;DHT22;28498;54.400;18.566;2022-11-10T12:07:01;12.50;99.90
42365;DHT22;28498;54.400;18.566;2022-11-10T12:09:41;12.60;99.90
42365;DHT22;28498;54.400;18.566;2022-11-10T12:15:28;12.70;99.90
42365;DHT22;28498;54.400;18.566;2022-11-10T12:23:34;12.40;99.90
42365;DHT22;28498;54.400;18.566;2022-11-10T12:26:19;12.30;99.90
42365;DHT22;28498;54.400;18.566;2022-11-10T12:31:29;12.10;99.90
42365;DHT22;28498;54.400;18.566;2022-11-10T12:36:59;12.10;99.90
42365;DHT22;28498;54.400;18.566;2022-11-10T12:42:36;12.20;99.90
42365;DHT22;28498;54.400;18.566;2022-11-10T12:45:06;12.20;99.90
42365;DHT22;28498;54.400;18.566;2022-11-10T12:47:45;12.20;99.90
42365;DHT22;28498;54.400;18.566;2022-11-10T12:53:23;12.10;99.90
42365;DHT22;28498;54.400;18.566;2022-11-10T12:56:04;12.10;99.90
42365;DHT22;28498;54.400;18.566;2022-11-10T12:58:33;12.20;99.90
42365;DHT22;28498;54.400;18.566;2022-11-10T13:01:03;12.30;99.90
42365;DHT22;28498;54.400;18.566;2022-11-10T13:03:33;12.40;99.90
42365;DHT22;28498;54.400;18.566;2022-11-10T13:06:25;12.40;99.90
42365;DHT22;28498;54.400;18.566;2022-11-10T13:08:53;12.50;99.90
42365;DHT22;28498;54.400;18.566;2022-11-10T13:11:31;12.40;99.90
42365;DHT22;28498;54.400;18.566;2022-11-10T13:14:01;12.40;99.90
42365;DHT22;28498;54.400;18.566;2022-11-10T13:19:08;12.20;99.90
42365;DHT22;28498;54.400;18.566;2022-11-10T13:34:33;11.80;99.90
42365;DHT22;28498;54.400;18.566;2022-11-10T13:37:01;11.80;99.90
42365;DHT22;28498;54.400;18.566;2022-11-10T13:39:31;11.70;99.90
42365;DHT22;28498;54.400;18.566;2022-11-10T13:44:37;11.60;99.90
42365;DHT22;28498;54.400;18.566;2022-11-10T13:52:42;11.60;99.90
42365;DHT22;28498;54.400;18.566;2022-11-10T13:58:09;11.70;99.90
42365;DHT22;28498;54.400;18.566;2022-11-10T14:00:37;11.80;99.90
42365;DHT22;28498;54.400;18.566;2022-11-10T14:03:17;11.80;99.90
42365;DHT22;28498;54.400;18.566;2022-11-10T14:06:01;11.60;99.90
42365;DHT22;28498;54.400;18.566;2022-11-10T14:08:33;11.60;99.90
42365;DHT22;28498;54.400;18.566;2022-11-10T14:15:11;11.40;99.90
42365;DHT22;28498;54.400;18.566;2022-11-10T14:17:43;11.30;99.90
42365;DHT22;28498;54.400;18.566;2022-11-10T14:20:44;11.30;99.90
42365;DHT22;28498;54.400;18.566;2022-11-10T14:26:05;11.30;99.90
42365;DHT22;28498;54.400;18.566;2022-11-10T14:28:38;11.30;99.90
42365;DHT22;28498;54.400;18.566;2022-11-10T14:31:05;11.20;99.90
42365;DHT22;28498;54.400;18.566;2022-11-10T14:33:32;11.10;99.90
42365;DHT22;28498;54.400;18.566;2022-11-10T14:36:01;11.20;99.90
42365;DHT22;28498;54.400;18.566;2022-11-10T14:38:31;11.10;99.90
42365;DHT22;28498;54.400;18.566;2022-11-10T14:41:05;10.90;99.90
42365;DHT22;28498;54.400;18.566;2022-11-10T14:43:36;10.70;99.90
42365;DHT22;28498;54.400;18.566;2022-11-10T14:46:05;10.50;99.90
42365;DHT22;28498;54.400;18.566;2022-11-10T14:48:36;10.40;99.90
42365;DHT22;28498;54.400;18.566;2022-11-10T14:51:11;10.20;99.90
42365;DHT22;28498;54.400;18.566;2022-11-10T14:53:44;10.30;99.90
42365;DHT22;28498;54.400;18.566;2022-11-10T14:56:20;10.30;99.90
42365;DHT22;28498;54.400;18.566;2022-11-10T14:58:48;10.30;99.90
42365;DHT22;28498;54.400;18.566;2022-11-10T15:01:37;10.30;99.90
42365;DHT22;28498;54.400;18.566;2022-11-10T15:04:05;10.10;99.90
42365;DHT22;28498;54.400;18.566;2022-11-10T15:06:33;10.00;99.90
42365;DHT22;28498;54.400;18.566;2022-11-10T15:09:33;9.90;99.90
42365;DHT22;28498;54.400;18.566;2022-11-10T15:17:12;9.90;99.90
42365;DHT22;28498;54.400;18.566;2022-11-10T15:22:29;9.70;99.90
42365;DHT22;28498;54.400;18.566;2022-11-10T15:24:59;9.60;99.90
42365;DHT22;28498;54.400;18.566;2022-11-10T15:27:28;9.70;99.90
42365;DHT22;28498;54.400;18.566;2022-11-10T15:30:00;9.60;99.90
42365;DHT22;28498;54.400;18.566;2022-11-10T15:32:40;9.90;99.90
42365;DHT22;28498;54.400;18.566;2022-11-10T15:35:22;9.80;99.90
42365;DHT22;28498;54.400;18.566;2022-11-10T15:40:48;9.80;99.90
42365;DHT22;28498;54.400;18.566;2022-11-10T15:45:58;9.80;99.90
42365;DHT22;28498;54.400;18.566;2022-11-10T15:48:34;9.90;99.90
42365;DHT22;28498;54.400;18.566;2022-11-10T15:51:03;9.90;99.90
42365;DHT22;28498;54.400;18.566;2022-11-10T15:53:37;10.00;99.90
42365;DHT22;28498;54.400;18.566;2022-11-10T15:56:04;10.10;99.90
42365;DHT22;28498;54.400;18.566;2022-11-10T15:58:33;10.00;99.90
42365;DHT22;28498;54.400;18.566;2022-11-10T16:01:00;9.80;99.90
42365;DHT22;28498;54.400;18.566;2022-11-10T16:03:27;9.80;99.90
42365;DHT22;28498;54.400;18.566;2022-11-10T16:05:56;10.00;99.90
42365;DHT22;28498;54.400;18.566;2022-11-10T16:08:23;10.00;99.90
42365;DHT22;28498;54.400;18.566;2022-11-10T16:10:54;10.00;99.90
42365;DHT22;28498;54.400;18.566;2022-11-10T16:13:27;10.10;99.90
42365;DHT22;28498;54.400;18.566;2022-11-10T16:15:55;10.10;99.90
42365;DHT22;28498;54.400;18.566;2022-11-10T16:18:25;10.30;99.90
42365;DHT22;28498;54.400;18.566;2022-11-10T16:20:52;10.20;99.90
42365;DHT22;28498;54.400;18.566;2022-11-10T16:23:19;10.20;99.90
42365;DHT22;28498;54.400;18.566;2022-11-10T16:25:49;10.10;99.90
42365;DHT22;28498;54.400;18.566;2022-11-10T16:28:20;10.00;99.90
42365;DHT22;28498;54.400;18.566;2022-11-10T16:30:50;10.00;99.90
42365;DHT22;28498;54.400;18.566;2022-11-10T16:33:19;10.00;99.90
42365;DHT22;28498;54.400;18.566;2022-11-10T16:35:51;9.80;99.90
42365;DHT22;28498;54.400;18.566;2022-11-10T16:38:25;9.70;99.90
42365;DHT22;28498;54.400;18.566;2022-11-10T16:40:57;9.50;99.90
42365;DHT22;28498;54.400;18.566;2022-11-10T16:43:25;9.30;99.90
42365;DHT22;28498;54.400;18.566;2022-11-10T16:45:55;9.20;99.90
42365;DHT22;28498;54.400;18.566;2022-11-10T16:48:31;9.30;99.90
42365;DHT22;28498;54.400;18.566;2022-11-10T16:51:00;9.20;99.90
42365;DHT22;28498;54.400;18.566;2022-11-10T16:57:16;9.00;99.90
42365;DHT22;28498;54.400;18.566;2022-11-10T16:59:43;8.90;99.90
42365;DHT22;28498;54.400;18.566;2022-11-10T17:02:28;8.80;99.90
42365;DHT22;28498;54.400;18.566;2022-11-10T17:04:57;9.00;99.90
42365;DHT22;28498;54.400;18.566;2022-11-10T17:07:25;8.80;99.90
42365;DHT22;28498;54.400;18.566;2022-11-10T17:09:57;8.80;99.90
42365;DHT22;28498;54.400;18.566;2022-11-10T17:12:24;8.80;99.90
42365;DHT22;28498;54.400;18.566;2022-11-10T17:14:51;8.80;99.90
42365;DHT22;28498;54.400;18.566;2022-11-10T17:17:18;8.70;99.90
42365;DHT22;28498;54.400;18.566;2022-11-10T17:19:46;8.60;99.90
42365;DHT22;28498;54.400;18.566;2022-11-10T17:22:17;8.60;99.90
42365;DHT22;28498;54.400;18.566;2022-11-10T17:24:51;8.50;99.90
42365;DHT22;28498;54.400;18.566;2022-11-10T17:27:18;8.50;99.90
42365;DHT22;28498;54.400;18.566;2022-11-10T17:29:46;8.40;99.90
42365;DHT22;28498;54.400;18.566;2022-11-10T17:32:12;8.50;99.90
42365;DHT22;28498;54.400;18.566;2022-11-10T17:34:39;8.60;99.90
42365;DHT22;28498;54.400;18.566;2022-11-10T17:37:10;8.60;99.90
42365;DHT22;28498;54.400;18.566;2022-11-10T17:39:38;8.60;99.90
42365;DHT22;28498;54.400;18.566;2022-11-10T17:42:11;8.60;99.90
42365;DHT22;28498;54.400;18.566;2022-11-10T17:44:38;8.50;99.90
42365;DHT22;28498;54.400;18.566;2022-11-10T17:47:05;8.30;99.90
42365;DHT22;28498;54.400;18.566;2022-11-10T17:49:32;8.30;99.90
42365;DHT22;28498;54.400;18.566;2022-11-10T17:51:59;8.40;99.90
42365;DHT22;28498;54.400;18.566;2022-11-10T17:54:25;8.50;99.90
42365;DHT22;28498;54.400;18.566;2022-11-10T17:56:52;8.60;99.90
42365;DHT22;28498;54.400;18.566;2022-11-10T17:59:19;8.70;99.90
42365;DHT22;28498;54.400;18.566;2022-11-10T18:01:46;8.80;99.90